Array
(
    [0] => p
    [1] => TAF-100
)
- বাংলা English

** MARITIME PORTS OF CHATTOGRAM, COX'S BAZAR, MONGLA AND PAYRA HAVE BEEN ADVISED TO KEEP HOISTED LOCAL CAUTIONARY SIGNAL NO. THREE. MONSOON IS STRONG OVER NORTH BAY **

TAF

TAF VGHS 160500Z 1606/1712 14008KT 4000 HZ SCT015 BKN100 TEMPO 1618/1624 16020G 30KT 2000 RA/TSRA BKN008 FEW025CB OVC090 BECMG 1700/1702 14008KT 3500 HZ SCT012 BKN100 TEMPO 1702/1710 16020G 30KT 2000 RA/TSRA BKN008 FEW025CB OVC090 BECMG 1710/1712 14008KT 4000 HZ SCT015 BKN100=

TAF VGEG 160500Z 1606/1712 18012KT 5000 SCT017 BKN120
TEMPO 1606/1613 18020G25KT 2000 RA/TSRA BKN008 FEW028CB OVC100 BECMG 1614/1616 16010KT 4500 SCT017 BKN120 BECMG 1704/1706 18013KT 5000 SCT017 BKN120=

TAF VGSY 160400Z 1606/1712 11005KT 3500HZ SCT012 BKN100 BECMG 1623/1701 04004KT 3000HZ SCT012 BKN100 BECMG 1703/1705 09005KT 3500HZ SCT015 BKN100 TEMPO 1606/1706 27025G35KT 1500 RA/TSRA BKN006 FEW025CB OVC080=